Terminal Aerodrome Forecast
Issued by NWS

Home | Current Version | Previous Version | Text Only | Print | Product List | Glossary On
Versions: 1 2 3 4 5 6 7 8 9 10 11 12 13 14 15 16
000
FTUS42 KMHX 100900 AAA
TAFISO
TAF AMD
KISO 100951Z 1010/1106 20005KT P6SM SCT010 BKN080
      TEMPO 1010/1012 5SM SHRA BR BKN015
     FM101200 22005KT P6SM VCSH BKN035
     FM101700 24005KT P6SM VCTS BKN035CB
      AMD LTD TO CLD VIS AND WIND=

USA.gov is the U.S. government's official web portal to all federal, state and local government web resources and services.